createdAt,value
2019-02-09T00:00:05.908Z,98077.25
2019-02-09T00:02:34.744Z,98090.93
2019-02-09T00:05:01.619Z,98077.02
2019-02-09T00:07:28.740Z,98059.58
2019-02-09T00:09:55.484Z,98068.27
2019-02-09T00:12:22.347Z,98061.45
2019-02-09T00:14:52.244Z,98051.45
2019-02-09T00:17:19.272Z,98050.13
2019-02-09T00:19:46.454Z,98039.31
2019-02-09T00:22:13.228Z,98041.66
2019-02-09T00:24:40.416Z,98031.91
2019-02-09T00:27:07.130Z,98028.48
2019-02-09T00:29:33.901Z,98026.06
2019-02-09T00:32:00.757Z,98016.27
2019-02-09T00:34:28.074Z,98013.64
2019-02-09T00:36:55.142Z,98020.19
2019-02-09T00:39:24.510Z,97993.57
2019-02-09T00:41:54.452Z,98008.84
2019-02-09T00:44:21.618Z,97997.73
2019-02-09T00:46:48.792Z,98000.86
2019-02-09T00:49:18.536Z,97988.59
2019-02-09T00:51:45.418Z,98002.27
2019-02-09T00:54:12.168Z,98004.11
2019-02-09T00:56:39.319Z,98021.52
2019-02-09T00:59:06.043Z,98024.73
2019-02-09T01:01:32.818Z,98032.64
2019-02-09T01:03:59.573Z,98036.37
2019-02-09T01:06:26.440Z,98014.53
2019-02-09T01:08:53.249Z,98028.28
2019-02-09T01:11:19.998Z,98032.05
2019-02-09T01:13:46.764Z,98030.98
2019-02-09T01:16:13.783Z,98018.13
2019-02-09T01:18:40.824Z,98020.81
2019-02-09T01:21:07.826Z,98032.13
2019-02-09T01:23:37.559Z,98023.48
2019-02-09T01:26:04.336Z,98047.14
2019-02-09T01:28:31.156Z,98038.47
2019-02-09T01:30:58.004Z,98049.78
2019-02-09T01:33:24.740Z,98036.63
2019-02-09T01:35:51.481Z,98036.94
2019-02-09T01:38:18.800Z,98033.78
2019-02-09T01:40:45.565Z,98038.28
2019-02-09T01:43:12.332Z,98049.31
2019-02-09T01:45:39.604Z,98038.00
2019-02-09T01:48:06.496Z,98040.36
2019-02-09T01:50:33.284Z,98045.64
2019-02-09T01:53:00.144Z,98029.08
2019-02-09T01:55:28.078Z,98059.05
2019-02-09T01:57:54.829Z,98041.71
2019-02-09T02:00:23.403Z,98058.75
2019-02-09T02:02:52.489Z,98063.22
2019-02-09T02:05:23.333Z,98067.96
2019-02-09T02:07:53.179Z,98066.67
2019-02-09T02:10:23.025Z,98072.45
2019-02-09T02:12:52.534Z,98058.75
2019-02-09T02:15:20.172Z,98071.61
2019-02-09T02:17:46.925Z,98080.04
2019-02-09T02:20:17.677Z,98074.00
2019-02-09T02:22:44.561Z,98084.23
2019-02-09T02:25:11.559Z,98079.54
2019-02-09T02:27:38.409Z,98070.03
2019-02-09T02:30:06.485Z,98062.97
2019-02-09T02:32:33.256Z,98078.97
2019-02-09T02:35:00.232Z,98048.50
2019-02-09T02:37:27.345Z,98028.79
2019-02-09T02:39:54.409Z,98013.31
2019-02-09T02:42:21.172Z,98005.95
2019-02-09T02:44:47.998Z,98011.22
2019-02-09T02:47:15.061Z,98002.02
2019-02-09T02:49:44.416Z,98006.20
2019-02-09T02:52:11.175Z,98004.66
2019-02-09T02:54:37.958Z,98002.27
2019-02-09T02:57:04.836Z,97985.73
2019-02-09T02:59:31.808Z,97992.30
2019-02-09T03:01:58.921Z,97985.98
2019-02-09T03:04:25.644Z,97977.32
2019-02-09T03:06:52.920Z,97972.87
2019-02-09T03:09:19.747Z,97979.70
2019-02-09T03:11:46.533Z,97971.30
2019-02-09T03:14:13.387Z,97965.77
2019-02-09T03:16:40.118Z,97959.22
2019-02-09T03:19:06.884Z,97956.06
2019-02-09T03:21:33.812Z,97963.39
2019-02-09T03:24:00.565Z,97965.51
2019-02-09T03:26:27.458Z,97944.76
2019-02-09T03:28:54.585Z,97957.38
2019-02-09T03:31:21.408Z,97945.30
2019-02-09T03:33:48.147Z,97950.55
2019-02-09T03:36:14.922Z,97944.49
2019-02-09T03:38:41.804Z,97944.49
2019-02-09T03:41:08.661Z,97965.51
2019-02-09T03:43:35.431Z,97951.83
2019-02-09T03:46:02.212Z,97959.19
2019-02-09T03:48:28.985Z,97972.32
2019-02-09T03:50:55.764Z,97972.32
2019-02-09T03:53:22.567Z,97962.34
2019-02-09T03:55:49.576Z,97958.42
2019-02-09T03:58:16.709Z,97975.99
2019-02-09T04:00:43.625Z,97975.99
2019-02-09T04:03:10.417Z,97971.81
2019-02-09T04:05:37.215Z,97980.21
2019-02-09T04:08:04.074Z,97985.19
2019-02-09T04:10:33.030Z,97978.63
2019-02-09T04:12:59.791Z,97989.41
2019-02-09T04:15:26.707Z,97982.56
2019-02-09T04:17:53.591Z,97979.91
2019-02-09T04:20:20.601Z,97995.40
2019-02-09T04:22:47.382Z,97985.16
2019-02-09T04:25:14.959Z,97997.51
2019-02-09T04:27:41.747Z,97998.55
2019-02-09T04:30:20.409Z,97996.95
2019-02-09T04:32:47.235Z,98011.45
2019-02-09T04:35:14.388Z,98020.37
2019-02-09T04:37:41.254Z,98031.95
2019-02-09T04:40:09.827Z,98030.64
2019-02-09T04:42:36.656Z,98043.78
2019-02-09T04:45:04.355Z,98050.37
2019-02-09T04:47:31.264Z,98061.38
2019-02-09T04:50:01.372Z,98066.14
2019-02-09T04:52:28.129Z,98088.45
2019-02-09T04:54:54.874Z,98104.50
2019-02-09T04:57:21.742Z,98082.42
2019-02-09T04:59:49.065Z,98098.47
2019-02-09T05:02:15.931Z,98095.84
2019-02-09T05:04:42.927Z,98095.57
2019-02-09T05:07:09.817Z,98097.92
2019-02-09T05:09:36.634Z,98086.36
2019-02-09T05:12:03.563Z,98110.54
2019-02-09T05:14:30.438Z,98114.50
2019-02-09T05:17:00.984Z,98110.56
2019-02-09T05:19:27.808Z,98119.20
2019-02-09T05:21:54.954Z,98118.44
2019-02-09T05:24:21.939Z,98115.81
2019-02-09T05:26:48.756Z,98129.46
2019-02-09T05:29:15.525Z,98124.95
2019-02-09T05:31:42.737Z,98129.42
2019-02-09T05:34:11.419Z,98145.18
2019-02-09T05:36:42.018Z,98140.98
2019-02-09T05:39:08.810Z,98151.75
2019-02-09T05:41:35.573Z,98149.14
2019-02-09T05:44:02.361Z,98154.12
2019-02-09T05:46:29.213Z,98160.42
2019-02-09T05:48:56.205Z,98153.31
2019-02-09T05:51:23.110Z,98171.98
2019-02-09T05:53:51.666Z,98155.46
2019-02-09T05:56:18.461Z,98168.35
2019-02-09T05:58:45.510Z,98167.28
2019-02-09T06:01:12.315Z,98171.77
2019-02-09T06:03:39.080Z,98169.66
2019-02-09T06:06:05.941Z,98177.80
2019-02-09T06:08:32.894Z,98177.80
2019-02-09T06:10:59.787Z,98185.69
2019-02-09T06:13:26.537Z,98191.48
2019-02-09T06:15:53.474Z,98191.23
2019-02-09T06:18:20.227Z,98185.95
2019-02-09T06:20:46.992Z,98187.50
2019-02-09T06:23:13.802Z,98183.08
2019-02-09T06:25:40.657Z,98195.70
2019-02-09T06:28:07.398Z,98194.92
2019-02-09T06:30:34.137Z,98193.84
2019-02-09T06:33:01.147Z,98186.22
2019-02-09T06:35:27.912Z,98198.05
2019-02-09T06:37:54.757Z,98199.64
2019-02-09T06:40:21.933Z,98203.05
2019-02-09T06:42:48.737Z,98196.48
2019-02-09T06:45:18.402Z,98211.20
2019-02-09T06:47:45.131Z,98212.23
2019-02-09T06:50:14.308Z,98205.41
2019-02-09T06:52:41.259Z,98214.59
2019-02-09T06:55:10.144Z,98221.94
2019-02-09T06:57:36.890Z,98224.33
2019-02-09T07:00:05.266Z,98110.61
2019-02-09T07:02:32.012Z,98229.56
2019-02-09T07:04:58.873Z,98226.70
2019-02-09T07:07:25.740Z,98234.31
2019-02-09T07:09:52.628Z,98241.70
2019-02-09T07:12:19.400Z,98236.44
2019-02-09T07:14:46.152Z,98239.84
2019-02-09T07:17:13.045Z,98259.58
2019-02-09T07:19:39.801Z,98250.88
2019-02-09T07:22:06.586Z,98263.53
2019-02-09T07:24:33.418Z,98259.59
2019-02-09T07:27:00.210Z,98258.53
2019-02-09T07:29:26.962Z,98261.16
2019-02-09T07:31:56.585Z,98277.98
2019-02-09T07:34:22.790Z,98288.75
2019-02-09T07:36:49.790Z,98274.05
2019-02-09T07:39:16.642Z,98282.22
2019-02-09T07:41:43.490Z,98280.38
2019-02-09T07:44:10.340Z,98298.56
2019-02-09T07:46:39.392Z,98300.11
2019-02-09T07:49:06.493Z,98296.72
2019-02-09T07:51:33.250Z,98304.86
2019-02-09T07:54:00.293Z,98300.41
2019-02-09T07:56:27.108Z,98315.67
2019-02-09T07:58:53.952Z,98312.26
2019-02-09T08:01:20.760Z,98324.11
2019-02-09T08:03:47.569Z,98315.92
2019-02-09T08:06:14.326Z,98315.67
2019-02-09T08:08:41.083Z,98325.93
2019-02-09T08:11:09.461Z,98321.44
2019-02-09T08:13:37.071Z,98333.28
2019-02-09T08:16:03.863Z,98330.39
2019-02-09T08:18:30.604Z,98329.58
2019-02-09T08:20:59.692Z,98340.63
2019-02-09T08:23:26.557Z,98344.30
2019-02-09T08:25:53.726Z,98344.55
2019-02-09T08:28:21.060Z,98348.52
2019-02-09T08:30:47.935Z,98344.83
2019-02-09T08:33:14.816Z,98345.37
2019-02-09T08:35:41.886Z,98351.42
2019-02-09T08:38:10.557Z,98343.53
2019-02-09T08:40:37.350Z,98365.09
2019-02-09T08:43:04.271Z,98364.30
2019-02-09T08:45:31.093Z,98359.34
2019-02-09T08:47:57.874Z,98357.47
2019-02-09T08:50:33.138Z,98368.52
2019-02-09T08:53:00.093Z,98364.59
2019-02-09T08:55:30.780Z,98373.80
2019-02-09T08:57:57.742Z,98371.70
2019-02-09T09:00:26.526Z,98366.43
2019-02-09T09:02:53.409Z,98368.83
2019-02-09T09:05:20.288Z,98368.53
2019-02-09T09:07:47.237Z,98367.25
2019-02-09T09:10:15.405Z,98370.14
2019-02-09T09:12:42.486Z,98372.52
2019-02-09T09:15:12.830Z,98368.28
2019-02-09T09:17:39.568Z,98375.67
2019-02-09T09:20:11.804Z,98373.56
2019-02-09T09:22:41.242Z,98378.03
2019-02-09T09:25:07.514Z,98378.31
2019-02-09T09:27:34.277Z,98383.06
2019-02-09T09:30:01.066Z,98386.75
2019-02-09T09:32:28.880Z,98405.46
2019-02-09T09:34:55.872Z,98386.25
2019-02-09T09:37:23.548Z,98400.97
2019-02-09T09:39:52.046Z,98399.39
2019-02-09T09:42:18.826Z,98402.03
2019-02-09T09:44:45.946Z,98416.77
2019-02-09T09:47:12.894Z,98419.39
2019-02-09T09:49:41.472Z,98412.56
2019-02-09T09:52:08.289Z,98412.56
2019-02-09T09:54:35.203Z,98407.30
2019-02-09T09:57:02.320Z,98419.17
2019-02-09T09:59:29.184Z,98421.80
2019-02-09T10:01:56.081Z,98407.56
2019-02-09T10:04:24.808Z,98429.44
2019-02-09T10:06:51.795Z,98433.40
2019-02-09T10:09:18.841Z,98429.95
2019-02-09T10:11:45.639Z,98417.33
2019-02-09T10:14:12.438Z,98437.33
2019-02-09T10:16:39.214Z,98433.11
2019-02-09T10:19:09.302Z,98436.81
2019-02-09T10:21:36.101Z,98446.83
2019-02-09T10:24:03.416Z,98438.13
2019-02-09T10:26:30.450Z,98442.34
2019-02-09T10:28:57.189Z,98434.71
2019-02-09T10:31:23.973Z,98441.05
2019-02-09T10:33:50.801Z,98441.30
2019-02-09T10:36:18.021Z,98438.40
2019-02-09T10:38:46.491Z,98453.42
2019-02-09T10:41:13.263Z,98453.16
2019-02-09T10:43:40.090Z,98447.59
2019-02-09T10:46:06.840Z,98453.91
2019-02-09T10:48:33.767Z,98448.11
2019-02-09T10:51:00.851Z,98456.77
2019-02-09T10:53:27.803Z,98469.13
2019-02-09T10:55:54.743Z,98477.30
2019-02-09T10:58:21.563Z,98483.16
2019-02-09T11:00:58.088Z,98469.98
2019-02-09T11:03:26.001Z,98460.80
2019-02-09T11:05:53.336Z,98452.08
2019-02-09T11:08:20.322Z,98454.73
2019-02-09T11:10:47.136Z,98466.06
2019-02-09T11:13:14.667Z,98464.75
2019-02-09T11:15:41.655Z,98463.16
2019-02-09T11:18:08.632Z,98466.84
2019-02-09T11:20:35.895Z,98456.07
2019-02-09T11:23:06.768Z,98444.70
2019-02-09T11:25:33.428Z,98429.44
2019-02-09T11:28:00.157Z,98418.59
2019-02-09T11:30:26.927Z,98432.80
2019-02-09T11:33:01.670Z,98460.49
2019-02-09T11:35:23.689Z,98441.80
2019-02-09T11:37:50.678Z,98452.30
2019-02-09T11:40:19.183Z,98447.55
2019-02-09T11:42:45.987Z,98437.51
2019-02-09T11:45:16.862Z,98447.27
2019-02-09T11:47:43.741Z,98460.42
2019-02-09T11:50:10.972Z,98458.66
2019-02-09T11:52:38.260Z,98459.17
2019-02-09T11:55:05.072Z,98462.89
2019-02-09T11:57:34.016Z,98478.45
2019-02-09T12:00:01.310Z,98457.10
2019-02-09T12:02:28.241Z,98465.02
2019-02-09T12:04:55.260Z,98481.61
2019-02-09T12:07:23.908Z,98496.88
2019-02-09T12:09:51.555Z,98492.94
2019-02-09T12:12:21.227Z,98495.56
2019-02-09T12:14:47.968Z,98511.59
2019-02-09T12:17:14.826Z,98510.80
2019-02-09T12:19:41.861Z,98511.81
2019-02-09T12:22:10.778Z,98490.20
2019-02-09T12:24:37.633Z,98499.94
2019-02-09T12:27:04.360Z,98480.43
2019-02-09T12:29:31.507Z,98473.21
2019-02-09T12:31:59.514Z,98474.20
2019-02-09T12:34:26.476Z,98460.28
2019-02-09T12:36:53.471Z,98461.31
2019-02-09T12:39:21.175Z,98485.48
2019-02-09T12:41:48.226Z,98472.33
2019-02-09T12:44:15.514Z,98463.89
2019-02-09T12:46:43.435Z,98480.23
2019-02-09T12:49:10.369Z,98489.38
2019-02-09T12:51:37.779Z,98464.66
2019-02-09T12:54:04.595Z,98466.73
2019-02-09T12:56:31.554Z,98492.23
2019-02-09T12:58:58.431Z,98485.59
2019-02-09T13:01:25.305Z,98486.03
2019-02-09T13:03:52.235Z,98486.03
2019-02-09T13:06:19.091Z,98472.55
2019-02-09T13:08:46.158Z,98473.34
2019-02-09T13:11:13.068Z,98481.84
2019-02-09T13:13:40.015Z,98491.33
2019-02-09T13:16:06.800Z,98467.48
2019-02-09T13:18:33.556Z,98467.48
2019-02-09T13:21:01.398Z,98470.19
2019-02-09T13:23:28.362Z,98462.67
2019-02-09T13:25:55.220Z,98462.67
2019-02-09T13:28:22.400Z,98460.87
2019-02-09T13:30:49.609Z,98451.13
2019-02-09T13:33:16.621Z,98466.73
2019-02-09T13:35:43.493Z,98470.92
2019-02-09T13:38:10.226Z,98473.33
2019-02-09T13:40:37.006Z,98478.34
2019-02-09T13:43:03.862Z,98484.70
2019-02-09T13:45:32.963Z,98489.44
2019-02-09T13:47:59.772Z,98490.23
2019-02-09T13:50:27.215Z,98484.68
2019-02-09T13:52:54.030Z,98490.98
2019-02-09T13:55:20.831Z,98485.45
2019-02-09T13:57:47.563Z,98493.34
2019-02-09T14:00:17.170Z,98485.73
2019-02-09T14:02:44.139Z,98488.62
2019-02-09T14:05:10.908Z,98489.44
2019-02-09T14:07:37.791Z,98491.81
2019-02-09T14:10:05.166Z,98500.48
2019-02-09T14:12:32.007Z,98502.81
2019-02-09T14:14:59.208Z,98488.62
2019-02-09T14:17:26.190Z,98500.48
2019-02-09T14:19:52.950Z,98516.84
2019-02-09T14:22:19.872Z,98509.48
2019-02-09T14:24:46.940Z,98503.96
2019-02-09T14:27:16.172Z,98511.86
2019-02-09T14:29:42.961Z,98509.77
2019-02-09T14:32:10.436Z,98513.98
2019-02-09T14:34:37.257Z,98511.36
2019-02-09T14:37:04.080Z,98517.13
2019-02-09T14:39:30.871Z,98511.60
2019-02-09T14:41:57.596Z,98508.44
2019-02-09T14:44:24.545Z,98508.17
2019-02-09T14:46:51.442Z,98530.29
2019-02-09T14:49:18.262Z,98507.37
2019-02-09T14:51:45.782Z,98512.66
2019-02-09T14:54:13.302Z,98507.66
2019-02-09T14:56:40.216Z,98506.08
2019-02-09T14:59:07.656Z,98500.27
2019-02-09T15:01:34.396Z,98502.92
2019-02-09T15:04:02.873Z,98498.69
2019-02-09T15:06:30.010Z,98509.22
2019-02-09T15:08:57.685Z,98496.30
2019-02-09T15:11:24.744Z,98498.42
2019-02-09T15:13:51.480Z,98494.48
2019-02-09T15:16:28.964Z,98489.99
2019-02-09T15:18:55.934Z,98494.47
2019-02-09T15:21:24.200Z,98500.02
2019-02-09T15:23:53.418Z,98503.69
2019-02-09T15:26:20.241Z,98522.11
2019-02-09T15:28:46.988Z,98521.83
2019-02-09T15:31:14.389Z,98521.81
2019-02-09T15:33:41.437Z,98515.77
2019-02-09T15:36:08.214Z,98508.38
2019-02-09T15:38:35.155Z,98501.80
2019-02-09T15:41:01.897Z,98500.76
2019-02-09T15:43:29.541Z,98506.55
2019-02-09T15:45:56.330Z,98521.02
2019-02-09T15:48:23.040Z,98507.09
2019-02-09T15:50:49.928Z,98521.03
2019-02-09T15:53:18.168Z,98527.61
2019-02-09T15:55:45.469Z,98524.67
2019-02-09T15:58:15.490Z,98515.49
2019-02-09T16:00:42.234Z,98527.87
2019-02-09T16:03:09.520Z,98537.86
2019-02-09T16:05:36.638Z,98531.52
2019-02-09T16:08:03.719Z,98527.06
2019-02-09T16:10:30.525Z,98535.51
2019-02-09T16:12:57.390Z,98536.57
2019-02-09T16:15:25.204Z,98527.61
2019-02-09T16:17:52.190Z,98522.37
2019-02-09T16:20:20.065Z,98526.58
2019-02-09T16:22:47.248Z,98530.78
2019-02-09T16:25:14.152Z,98542.90
2019-02-09T16:27:40.908Z,98537.63
2019-02-09T16:30:18.448Z,98551.28
2019-02-09T16:32:41.383Z,98558.14
2019-02-09T16:35:10.410Z,98555.72
2019-02-09T16:37:37.556Z,98543.59
2019-02-09T16:40:06.270Z,98549.88
2019-02-09T16:42:34.186Z,98554.56
2019-02-09T16:45:01.077Z,98567.45
2019-02-09T16:47:28.004Z,98554.51
2019-02-09T16:49:54.830Z,98557.13
2019-02-09T16:52:21.956Z,98557.61
2019-02-09T16:54:49.969Z,98570.77
2019-02-09T16:57:16.818Z,98560.45
2019-02-09T16:59:43.971Z,98577.50
2019-02-09T17:02:10.995Z,98573.06
2019-02-09T17:04:37.827Z,98575.39
2019-02-09T17:07:04.678Z,98577.74
2019-02-09T17:09:35.306Z,98582.47
2019-02-09T17:12:02.506Z,98583.49
2019-02-09T17:14:29.562Z,98586.14
2019-02-09T17:16:56.340Z,98593.52
2019-02-09T17:19:23.216Z,98593.98
2019-02-09T17:21:49.979Z,98590.05
2019-02-09T17:24:16.784Z,98595.84
2019-02-09T17:26:48.013Z,98602.46
2019-02-09T17:29:15.261Z,98604.25
2019-02-09T17:31:42.018Z,98604.25
2019-02-09T17:34:10.665Z,98612.11
2019-02-09T17:36:40.659Z,98618.97
2019-02-09T17:39:07.372Z,98609.20
2019-02-09T17:41:34.260Z,98621.57
2019-02-09T17:44:01.519Z,98618.47
2019-02-09T17:46:28.432Z,98619.25
2019-02-09T17:48:55.651Z,98622.44
2019-02-09T17:51:22.393Z,98619.55
2019-02-09T17:53:49.446Z,98619.53
2019-02-09T17:56:16.320Z,98617.88
2019-02-09T17:58:43.161Z,98617.34
2019-02-09T18:01:11.842Z,98617.39
2019-02-09T18:03:38.565Z,98624.27
2019-02-09T18:06:05.305Z,98625.28
2019-02-09T18:08:32.983Z,98628.45
2019-02-09T18:11:00.023Z,98619.77
2019-02-09T18:13:26.810Z,98626.05
2019-02-09T18:15:53.551Z,98622.37
2019-02-09T18:18:20.975Z,98612.33
2019-02-09T18:20:48.184Z,98621.34
2019-02-09T18:23:15.453Z,98619.25
2019-02-09T18:25:42.182Z,98616.34
2019-02-09T18:28:09.055Z,98628.06
2019-02-09T18:30:36.187Z,98605.80
2019-02-09T18:33:03.712Z,98613.71
2019-02-09T18:35:30.698Z,98612.61
2019-02-09T18:37:57.422Z,98618.63
2019-02-09T18:40:24.421Z,98623.66
2019-02-09T18:42:54.699Z,98607.94
2019-02-09T18:45:23.333Z,98625.77
2019-02-09T18:47:50.657Z,98621.83
2019-02-09T18:50:19.921Z,98623.97
2019-02-09T18:52:46.775Z,98614.50
2019-02-09T18:55:16.081Z,98616.86
2019-02-09T18:57:44.031Z,98618.12
2019-02-09T19:00:16.740Z,98621.80
2019-02-09T19:02:43.548Z,98615.23
2019-02-09T19:05:10.851Z,98614.13
2019-02-09T19:07:37.651Z,98607.86
2019-02-09T19:10:07.541Z,98602.84
2019-02-09T19:12:34.495Z,98599.74
2019-02-09T19:15:01.780Z,98590.28
2019-02-09T19:17:28.725Z,98595.30
2019-02-09T19:19:55.473Z,98589.27
2019-02-09T19:22:23.482Z,98591.59
2019-02-09T19:24:51.053Z,98592.38
2019-02-09T19:27:17.955Z,98584.72
2019-02-09T19:29:44.765Z,98590.28
2019-02-09T19:32:11.538Z,98586.32
2019-02-09T19:34:38.695Z,98590.48
2019-02-09T19:37:05.971Z,98592.05
2019-02-09T19:39:33.089Z,98586.27
2019-02-09T19:42:00.661Z,98598.31
2019-02-09T19:44:29.464Z,98594.20
2019-02-09T19:46:56.243Z,98600.26
2019-02-09T19:49:23.132Z,98591.53
2019-02-09T19:51:49.849Z,98589.16
2019-02-09T19:54:16.616Z,98582.92
2019-02-09T19:56:44.005Z,98576.11
2019-02-09T19:59:11.131Z,98586.02
2019-02-09T20:01:38.158Z,98586.58
2019-02-09T20:04:05.327Z,98586.52
2019-02-09T20:06:32.286Z,98585.75
2019-02-09T20:08:59.455Z,98577.56
2019-02-09T20:11:26.613Z,98580.17
2019-02-09T20:13:53.388Z,98576.02
2019-02-09T20:16:20.612Z,98578.97
2019-02-09T20:18:47.722Z,98574.95
2019-02-09T20:21:14.707Z,98589.48
2019-02-09T20:23:42.067Z,98585.23
2019-02-09T20:26:09.136Z,98579.51
2019-02-09T20:28:36.045Z,98582.44
2019-02-09T20:31:02.954Z,98588.16
2019-02-09T20:33:29.804Z,98590.78
2019-02-09T20:35:56.711Z,98592.39
2019-02-09T20:38:23.520Z,98590.33
2019-02-09T20:40:54.334Z,98593.98
2019-02-09T20:43:21.476Z,98605.33
2019-02-09T20:45:48.874Z,98590.35
2019-02-09T20:48:17.279Z,98588.00
2019-02-09T20:50:44.783Z,98580.84
2019-02-09T20:53:11.727Z,98577.19
2019-02-09T20:55:38.833Z,98571.39
2019-02-09T20:58:08.348Z,98574.02
2019-02-09T21:00:35.327Z,98575.58
2019-02-09T21:03:02.226Z,98568.24
2019-02-09T21:05:36.197Z,98565.95
2019-02-09T21:07:58.930Z,98563.80
2019-02-09T21:10:27.238Z,98561.98
2019-02-09T21:12:56.963Z,98560.66
2019-02-09T21:15:25.016Z,98546.19
2019-02-09T21:17:52.775Z,98538.56
2019-02-09T21:20:19.975Z,98541.42
2019-02-09T21:22:47.371Z,98544.57
2019-02-09T21:25:20.316Z,98544.13
2019-02-09T21:27:47.236Z,98541.23
2019-02-09T21:30:16.204Z,98535.45
2019-02-09T21:32:43.070Z,98530.16
2019-02-09T21:35:09.974Z,98536.47
2019-02-09T21:37:36.748Z,98525.97
2019-02-09T21:40:04.978Z,98526.27
2019-02-09T21:42:31.828Z,98535.46
2019-02-09T21:44:58.674Z,98529.98
2019-02-09T21:47:25.856Z,98521.78
2019-02-09T21:49:52.766Z,98518.61
2019-02-09T21:52:19.510Z,98514.67
2019-02-09T21:54:46.246Z,98519.64
2019-02-09T21:57:13.289Z,98519.12
2019-02-09T21:59:41.464Z,98522.32
2019-02-09T22:02:08.364Z,98516.27
2019-02-09T22:04:36.212Z,98517.06
2019-02-09T22:07:03.098Z,98511.02
2019-02-09T22:09:29.998Z,98513.90
2019-02-09T22:11:57.096Z,98511.78
2019-02-09T22:14:26.160Z,98505.23
2019-02-09T22:16:53.295Z,98519.97
2019-02-09T22:19:20.304Z,98508.42
2019-02-09T22:21:50.465Z,98507.38
2019-02-09T22:24:17.336Z,98497.34
2019-02-09T22:26:44.117Z,98512.88
2019-02-09T22:29:11.372Z,98498.97
2019-02-09T22:31:38.273Z,98502.91
2019-02-09T22:34:05.198Z,98490.52
2019-02-09T22:36:37.295Z,98486.89
2019-02-09T22:39:06.173Z,98480.02
2019-02-09T22:41:32.935Z,98471.63
2019-02-09T22:43:59.734Z,98474.25
2019-02-09T22:46:26.450Z,98472.11
2019-02-09T22:48:53.392Z,98480.28
2019-02-09T22:51:23.074Z,98480.00
2019-02-09T22:53:49.941Z,98478.14
2019-02-09T22:56:16.688Z,98481.55
2019-02-09T22:58:43.426Z,98468.93
2019-02-09T23:01:42.344Z,98463.14
2019-02-09T23:04:49.418Z,98464.16
2019-02-09T23:07:25.258Z,98457.59
2019-02-09T23:09:52.258Z,98453.41
2019-02-09T23:12:19.033Z,98442.35
2019-02-09T23:14:46.406Z,98448.11
2019-02-09T23:17:13.743Z,98441.02
2019-02-09T23:19:40.519Z,98431.54
2019-02-09T23:22:07.580Z,98423.41
2019-02-09T23:24:34.409Z,98419.73
2019-02-09T23:27:01.339Z,98414.70
2019-02-09T23:29:28.578Z,98413.35
2019-02-09T23:31:55.311Z,98419.95
2019-02-09T23:34:22.249Z,98409.19
2019-02-09T23:36:49.506Z,98415.75
2019-02-09T23:39:16.273Z,98406.03
2019-02-09T23:41:43.014Z,98403.66
2019-02-09T23:44:10.121Z,98400.22
2019-02-09T23:46:39.527Z,98451.20
2019-02-09T23:49:06.505Z,98392.55
2019-02-09T23:51:35.037Z,98386.78
2019-02-09T23:54:02.054Z,98384.38
2019-02-09T23:56:29.084Z,98381.50
2019-02-09T23:58:55.840Z,98377.05
